Time;durP1;ratioP1;P1;durP2;ratioP2;P2;SDS_P1;SDS_P2;PMS_P1;PMS_P2;Temp;Humidity;BMP_temperature;BMP_pressure;BME280_temperature;BME280_humidity;BME280_pressure;Samples;Min_cycle;Max_cycle;Signal;HPM_P1;HPM_P2
2021/03/09 00:02:22;;;;;;;2.88;1.48;;;20.50;43.10;;;;;;5084346;28;20035;-44
2021/03/09 00:04:48;;;;;;;1.20;0.95;;;20.60;43.10;;;;;;5083494;28;20060;-43
2021/03/09 00:07:14;;;;;;;3.97;1.73;;;20.60;43.10;;;;;;5086791;28;20016;-42
2021/03/09 00:09:39;;;;;;;1.70;1.25;;;20.50;43.10;;;;;;5084760;28;20051;-45
2021/03/09 00:12:05;;;;;;;2.50;1.60;;;20.60;43.10;;;;;;5088180;28;20454;-45
2021/03/09 00:14:31;;;;;;;2.72;1.55;;;20.60;43.00;;;;;;5074115;28;20036;-43
2021/03/09 00:16:57;;;;;;;3.00;1.50;;;20.50;43.00;;;;;;5093244;28;20028;-43
2021/03/09 00:19:22;;;;;;;2.10;1.45;;;20.60;43.00;;;;;;5078476;28;20042;-42
2021/03/09 00:21:48;;;;;;;1.60;1.20;;;20.60;43.00;;;;;;5084071;28;20024;-44
2021/03/09 00:24:14;;;;;;;2.40;1.45;;;20.60;43.00;;;;;;5071508;28;20111;-50
2021/03/09 00:26:40;;;;;;;2.67;1.63;;;20.60;43.40;;;;;;5074155;28;20040;-44
2021/03/09 00:29:05;;;;;;;2.13;1.30;;;20.60;43.00;;;;;;5089538;28;20489;-43
2021/03/09 00:31:31;;;;;;;2.83;1.60;;;20.60;43.00;;;;;;5074725;28;20033;-43
2021/03/09 00:33:57;;;;;;;1.73;1.35;;;20.60;42.90;;;;;;5080402;28;20035;-43
2021/03/09 00:36:22;;;;;;;1.83;1.30;;;20.60;42.90;;;;;;5092292;28;20020;-43
2021/03/09 00:38:48;;;;;;;2.38;1.40;;;20.60;42.90;;;;;;5090455;28;20036;-43
2021/03/09 00:41:14;;;;;;;2.65;1.55;;;20.60;42.80;;;;;;5077789;28;20025;-42
2021/03/09 00:43:40;;;;;;;2.45;1.33;;;20.60;42.90;;;;;;5072764;28;20032;-43
2021/03/09 00:46:05;;;;;;;2.10;1.38;;;20.60;42.80;;;;;;5083855;28;20028;-42
2021/03/09 00:48:41;;;;;;;1.90;1.30;;;20.60;42.80;;;;;;5073727;28;20377;-42
2021/03/09 00:51:07;;;;;;;2.25;1.48;;;20.60;42.80;;;;;;5092904;28;20036;-43
2021/03/09 00:53:33;;;;;;;1.80;1.40;;;20.60;42.80;;;;;;5091333;28;20035;-44
2021/03/09 00:55:59;;;;;;;2.28;1.63;;;20.60;42.70;;;;;;5084380;28;20053;-45
2021/03/09 00:58:25;;;;;;;2.00;1.30;;;20.60;42.70;;;;;;5075680;28;20459;-45
2021/03/09 01:00:50;;;;;;;1.98;1.40;;;20.60;42.70;;;;;;5093486;28;20034;-42
2021/03/09 01:03:16;;;;;;;2.50;1.60;;;20.50;42.60;;;;;;5091770;28;20046;-45
2021/03/09 01:05:42;;;;;;;2.97;1.85;;;20.50;42.60;;;;;;5080217;28;20059;-44
2021/03/09 01:08:08;;;;;;;5.18;1.60;;;20.60;42.60;;;;;;5078404;28;20027;-43
2021/03/09 01:10:34;;;;;;;2.15;1.35;;;20.60;42.60;;;;;;5089367;28;20028;-43
2021/03/09 01:13:00;;;;;;;2.72;1.73;;;20.60;42.60;;;;;;5078725;28;20036;-47
2021/03/09 01:15:26;;;;;;;4.55;1.42;;;20.60;42.60;;;;;;5091976;28;20046;-47
2021/03/09 01:17:52;;;;;;;2.25;1.38;;;20.50;42.50;;;;;;5084613;28;20065;-42
2021/03/09 01:20:17;;;;;;;1.90;1.20;;;20.60;42.50;;;;;;5092010;28;20025;-44
2021/03/09 01:22:43;;;;;;;2.03;1.42;;;20.60;42.50;;;;;;5091131;28;20028;-43
2021/03/09 01:25:09;;;;;;;2.22;1.50;;;20.60;42.50;;;;;;5072569;28;20424;-45
2021/03/09 01:27:35;;;;;;;2.33;1.25;;;20.60;42.50;;;;;;5072778;28;20496;-43
2021/03/09 01:30:01;;;;;;;3.45;1.08;;;20.60;42.50;;;;;;5081723;28;20028;-49
2021/03/09 01:32:26;;;;;;;1.70;1.23;;;20.50;42.40;;;;;;5084698;28;20032;-44
2021/03/09 01:34:52;;;;;;;2.05;1.48;;;20.60;42.40;;;;;;5090281;28;20106;-47
2021/03/09 01:37:18;;;;;;;2.10;1.48;;;20.60;42.40;;;;;;5075056;28;20045;-44
2021/03/09 01:39:44;;;;;;;2.78;1.40;;;20.60;42.40;;;;;;5080326;28;20028;-42
2021/03/09 01:42:09;;;;;;;1.58;1.40;;;20.60;42.40;;;;;;5073073;28;20027;-43
2021/03/09 01:44:35;;;;;;;2.10;1.40;;;20.60;42.30;;;;;;5077700;28;20370;-43
2021/03/09 01:47:02;;;;;;;3.15;1.48;;;20.60;42.30;;;;;;5080450;28;20020;-45
2021/03/09 01:49:34;;;;;;;3.03;1.67;;;20.60;42.30;;;;;;5088187;28;20114;-46
2021/03/09 01:52:02;;;;;;;1.42;1.33;;;20.60;42.30;;;;;;5080319;28;20418;-45
2021/03/09 01:54:27;;;;;;;2.85;1.50;;;20.60;42.30;;;;;;5077490;28;20020;-43
2021/03/09 01:56:53;;;;;;;2.13;1.55;;;20.60;42.30;;;;;;5074773;28;20053;-46
2021/03/09 01:59:21;;;;;;;2.33;1.20;;;20.60;42.30;;;;;;5079528;28;20021;-45
2021/03/09 02:01:47;;;;;;;2.03;1.23;;;20.60;42.20;;;;;;5072830;28;20028;-43
2021/03/09 02:04:13;;;;;;;2.08;1.50;;;20.60;42.20;;;;;;5072995;28;20029;-46
2021/03/09 02:06:39;;;;;;;2.10;1.40;;;20.60;42.20;;;;;;5091915;28;20745;-44
2021/03/09 02:09:08;;;;;;;2.92;1.30;;;20.60;42.20;;;;;;5077514;28;20032;-49
2021/03/09 02:11:55;;;;;;;2.90;1.95;;;20.60;42.10;;;;;;5081537;28;20031;-44
2021/03/09 02:14:31;;;;;;;2.60;1.23;;;20.60;42.10;;;;;;5091237;28;20039;-47
2021/03/09 02:17:09;;;;;;;2.92;1.52;;;20.60;42.10;;;;;;5083117;28;20036;-45
2021/03/09 02:19:49;;;;;;;2.45;1.50;;;20.60;42.10;;;;;;5091474;28;20027;-50
2021/03/09 02:22:42;;;;;;;2.50;1.60;;;20.60;42.10;;;;;;5086026;28;20040;-46
2021/03/09 02:25:41;;;;;;;3.10;1.70;;;20.60;42.00;;;;;;5072402;28;20111;-47
2021/03/09 02:28:14;;;;;;;3.25;1.42;;;20.60;42.00;;;;;;5072496;28;20078;-50
2021/03/09 02:30:43;;;;;;;2.10;1.48;;;20.60;42.00;;;;;;5079447;28;20025;-44
2021/03/09 02:33:18;;;;;;;1.92;1.38;;;20.60;42.00;;;;;;5071112;28;20035;-45
2021/03/09 02:35:54;;;;;;;1.85;1.52;;;20.60;42.00;;;;;;5078266;28;20036;-43
2021/03/09 02:38:22;;;;;;;3.15;1.42;;;20.60;42.00;;;;;;5088729;28;20023;-42
2021/03/09 02:40:53;;;;;;;2.83;1.30;;;20.60;41.90;;;;;;5085609;28;20032;-43
2021/03/09 02:43:20;;;;;;;1.55;1.27;;;20.60;41.90;;;;;;5081830;28;20063;-43
2021/03/09 02:45:50;;;;;;;2.47;1.65;;;20.60;41.90;;;;;;5084157;28;20074;-42
2021/03/09 02:48:21;;;;;;;5.75;2.58;;;20.60;41.90;;;;;;5080495;28;20117;-42
2021/03/09 02:50:49;;;;;;;2.37;1.40;;;20.60;41.90;;;;;;5073031;28;20020;-42
2021/03/09 02:53:15;;;;;;;2.28;1.40;;;20.60;41.90;;;;;;5085614;28;20074;-42
2021/03/09 02:55:42;;;;;;;2.83;1.63;;;20.60;41.80;;;;;;5073323;28;20041;-43
2021/03/09 02:58:12;;;;;;;2.75;1.63;;;20.60;41.90;;;;;;5083355;28;20049;-49
2021/03/09 03:00:40;;;;;;;2.42;1.67;;;20.60;41.80;;;;;;5089374;28;20028;-44
2021/03/09 03:03:08;;;;;;;2.60;1.48;;;20.60;41.80;;;;;;5090959;28;20783;-51
2021/03/09 03:05:38;;;;;;;1.40;1.30;;;20.60;41.80;;;;;;5085526;28;20025;-42
2021/03/09 03:08:07;;;;;;;2.60;1.35;;;20.60;41.80;;;;;;5087839;28;20024;-42
2021/03/09 03:10:34;;;;;;;2.42;1.63;;;20.60;41.80;;;;;;5074562;28;20526;-42
2021/03/09 03:13:01;;;;;;;4.10;1.63;;;20.60;41.70;;;;;;5085998;28;20074;-42
2021/03/09 03:15:28;;;;;;;2.97;1.48;;;20.60;41.70;;;;;;5089828;28;20042;-43
2021/03/09 03:17:55;;;;;;;1.70;1.15;;;20.60;41.70;;;;;;5082163;28;20101;-43
2021/03/09 03:20:22;;;;;;;2.67;1.40;;;20.60;41.70;;;;;;5090043;28;20046;-42
2021/03/09 03:22:49;;;;;;;1.95;1.38;;;20.60;42.40;;;;;;5074348;28;20494;-42
2021/03/09 03:25:15;;;;;;;2.33;1.50;;;20.60;41.70;;;;;;5087998;28;20036;-42
2021/03/09 03:27:42;;;;;;;3.30;1.60;;;20.60;41.60;;;;;;5090547;28;20385;-42
2021/03/09 03:30:13;;;;;;;2.35;1.15;;;20.70;41.70;;;;;;5086888;28;20038;-50
2021/03/09 03:32:39;;;;;;;2.33;1.42;;;20.60;41.60;;;;;;5071419;28;20064;-42
2021/03/09 03:35:10;;;;;;;2.22;1.52;;;20.60;41.60;;;;;;5080558;28;20430;-43
2021/03/09 03:37:37;;;;;;;2.20;1.33;;;20.60;41.60;;;;;;5089125;28;20027;-47
2021/03/09 03:40:22;;;;;;;2.90;1.58;;;20.60;41.60;;;;;;5081851;28;20033;-44
2021/03/09 03:42:48;;;;;;;1.98;1.25;;;20.60;41.60;;;;;;5077240;28;20024;-42
2021/03/09 03:45:18;;;;;;;2.58;1.55;;;20.60;42.20;;;;;;5089195;28;20074;-43
2021/03/09 03:47:44;;;;;;;2.40;1.52;;;20.70;41.70;;;;;;5071300;28;20103;-44
2021/03/09 03:50:13;;;;;;;2.50;1.67;;;20.60;41.60;;;;;;5078258;28;20454;-49
2021/03/09 03:52:50;;;;;;;3.63;1.50;;;20.60;41.50;;;;;;5079591;28;20420;-43
2021/03/09 03:55:52;;;;;;;2.15;1.52;;;20.60;41.50;;;;;;5083393;28;20431;-42
2021/03/09 03:58:24;;;;;;;2.78;1.50;;;20.70;41.60;;;;;;5081639;28;20067;-42
2021/03/09 04:00:54;;;;;;;2.15;1.50;;;20.70;41.50;;;;;;5079541;28;20033;-43
2021/03/09 04:03:20;;;;;;;4.68;1.60;;;20.70;41.60;;;;;;5071588;28;20074;-48
2021/03/09 04:05:49;;;;;;;2.08;1.40;;;20.60;41.50;;;;;;5082647;28;20028;-45
2021/03/09 04:08:16;;;;;;;2.22;1.50;;;20.60;41.50;;;;;;5076998;28;20020;-43
2021/03/09 04:10:43;;;;;;;2.53;1.50;;;20.70;41.50;;;;;;5074542;28;20046;-43
2021/03/09 04:13:09;;;;;;;3.75;2.03;;;20.60;41.50;;;;;;5083328;28;20024;-49
2021/03/09 04:15:36;;;;;;;1.40;1.27;;;20.70;41.50;;;;;;5093520;28;20032;-44
2021/03/09 04:18:05;;;;;;;1.92;1.58;;;20.70;41.50;;;;;;5085798;28;20033;-48
2021/03/09 04:20:31;;;;;;;2.45;1.52;;;20.70;41.50;;;;;;5073661;28;20028;-43
2021/03/09 04:22:58;;;;;;;2.35;1.55;;;20.70;41.50;;;;;;5074422;28;20032;-43
2021/03/09 04:25:25;;;;;;;2.00;1.45;;;20.60;41.40;;;;;;5076224;28;20473;-43
2021/03/09 04:27:51;;;;;;;1.88;1.30;;;20.70;41.50;;;;;;5079431;28;20112;-42
2021/03/09 04:30:18;;;;;;;2.92;1.50;;;20.70;41.50;;;;;;5092677;28;20447;-47
2021/03/09 04:32:44;;;;;;;2.25;1.50;;;20.70;41.50;;;;;;5074503;28;20029;-47
2021/03/09 04:35:10;;;;;;;1.90;1.10;;;20.70;41.50;;;;;;5079518;28;20028;-49
2021/03/09 04:37:39;;;;;;;2.10;1.50;;;20.70;41.50;;;;;;5082616;28;20037;-44
2021/03/09 04:40:06;;;;;;;1.85;1.40;;;20.70;41.40;;;;;;5074463;28;20029;-42
2021/03/09 04:42:32;;;;;;;2.45;1.67;;;20.70;41.40;;;;;;5080322;28;20024;-42
2021/03/09 04:44:58;;;;;;;2.55;1.67;;;20.70;41.40;;;;;;5086980;28;20034;-43
2021/03/09 04:47:24;;;;;;;2.03;1.45;;;20.70;41.40;;;;;;5077662;28;20020;-42
2021/03/09 04:49:55;;;;;;;2.70;1.35;;;20.70;41.40;;;;;;5084561;28;20029;-42
2021/03/09 04:52:21;;;;;;;2.20;1.40;;;20.70;41.40;;;;;;5081939;28;20043;-46
2021/03/09 04:54:46;;;;;;;2.53;1.65;;;20.70;41.40;;;;;;5080488;28;20025;-42
2021/03/09 04:57:12;;;;;;;2.72;1.60;;;20.70;41.30;;;;;;5090630;28;20052;-50
2021/03/09 04:59:38;;;;;;;3.03;1.80;;;20.70;41.30;;;;;;5093506;28;20024;-42
2021/03/09 05:02:03;;;;;;;3.28;1.45;;;20.60;41.20;;;;;;5080817;28;20028;-42
2021/03/09 05:04:29;;;;;;;2.30;1.50;;;20.70;41.40;;;;;;5081101;28;20031;-45
2021/03/09 05:06:54;;;;;;;3.60;1.70;;;20.70;41.30;;;;;;5082140;28;20381;-42
2021/03/09 05:09:20;;;;;;;3.92;1.70;;;20.70;41.30;;;;;;5072526;28;20035;-43
2021/03/09 05:11:46;;;;;;;2.33;1.67;;;20.70;41.20;;;;;;5081130;28;20059;-42
2021/03/09 05:14:11;;;;;;;2.00;1.42;;;20.70;41.30;;;;;;5079710;28;20033;-48
2021/03/09 05:16:37;;;;;;;5.45;1.70;;;20.70;41.30;;;;;;5082561;28;20043;-42
2021/03/09 05:19:03;;;;;;;10.73;2.00;;;20.70;41.30;;;;;;5082392;28;20115;-43
2021/03/09 05:21:29;;;;;;;2.67;1.58;;;20.70;41.20;;;;;;5080172;28;20034;-44
2021/03/09 05:23:55;;;;;;;2.90;1.63;;;20.70;41.20;;;;;;5085408;28;20457;-43
2021/03/09 05:26:21;;;;;;;2.38;1.70;;;20.70;41.20;;;;;;5081854;28;20077;-41
2021/03/09 05:28:48;;;;;;;3.03;2.00;;;20.70;41.20;;;;;;5082375;28;20048;-44
2021/03/09 05:31:14;;;;;;;2.53;1.70;;;20.60;41.10;;;;;;5084841;28;20048;-49
2021/03/09 05:33:40;;;;;;;2.35;1.58;;;20.60;41.10;;;;;;5082013;28;20488;-44
2021/03/09 05:36:06;;;;;;;3.95;2.20;;;20.70;41.20;;;;;;5081418;28;20040;-44
2021/03/09 05:38:31;;;;;;;2.70;1.77;;;20.70;41.10;;;;;;5083765;28;20089;-42
2021/03/09 05:40:59;;;;;;;2.60;1.70;;;20.70;41.10;;;;;;5081162;28;20086;-42
2021/03/09 05:43:25;;;;;;;5.82;1.67;;;20.70;41.10;;;;;;5080778;28;20024;-44
2021/03/09 05:45:54;;;;;;;2.67;1.88;;;20.60;41.10;;;;;;5082269;28;20172;-43
2021/03/09 05:48:20;;;;;;;4.05;1.73;;;20.70;41.10;;;;;;5081775;28;20035;-41
2021/03/09 05:50:45;;;;;;;3.20;1.90;;;20.70;41.10;;;;;;5081217;28;20028;-43
2021/03/09 05:53:11;;;;;;;2.13;1.70;;;20.70;41.10;;;;;;5083976;28;20031;-51
2021/03/09 05:55:38;;;;;;;3.65;1.80;;;20.70;41.10;;;;;;5079275;28;20048;-42
2021/03/09 05:58:04;;;;;;;3.55;2.00;;;20.70;41.10;;;;;;5083160;28;20051;-42
2021/03/09 06:00:30;;;;;;;4.82;2.17;;;20.70;41.10;;;;;;5083446;28;20821;-42
2021/03/09 06:02:55;;;;;;;3.00;1.77;;;20.70;41.00;;;;;;5083062;28;20052;-46
2021/03/09 06:05:21;;;;;;;3.95;1.80;;;20.70;41.10;;;;;;5081471;28;20027;-42
2021/03/09 06:07:47;;;;;;;2.88;1.45;;;20.70;41.10;;;;;;5083371;28;20121;-42
2021/03/09 06:10:23;;;;;;;3.25;1.70;;;20.70;41.00;;;;;;5081648;28;20032;-47
2021/03/09 06:12:50;;;;;;;2.97;2.00;;;20.70;41.00;;;;;;5084434;28;20032;-42
2021/03/09 06:15:16;;;;;;;4.25;2.22;;;20.70;41.00;;;;;;5088426;28;20034;-42
2021/03/09 06:17:43;;;;;;;3.70;2.30;;;20.70;41.00;;;;;;5077291;28;20036;-42
2021/03/09 06:20:18;;;;;;;7.20;1.90;;;20.60;40.90;;;;;;5082853;28;20024;-43
2021/03/09 06:22:55;;;;;;;2.05;1.30;;;20.70;41.10;;;;;;5091939;28;20024;-45
2021/03/09 06:25:24;;;;;;;2.53;1.70;;;20.70;41.10;;;;;;5089747;28;20119;-43
2021/03/09 06:27:50;;;;;;;3.42;1.73;;;20.70;41.00;;;;;;5087867;28;20427;-41
2021/03/09 06:30:33;;;;;;;4.65;1.67;;;20.60;41.00;;;;;;5081796;28;20081;-45
2021/03/09 06:32:59;;;;;;;2.78;1.40;;;20.70;41.10;;;;;;5084312;28;20496;-42
2021/03/09 06:35:39;;;;;;;3.53;2.15;;;20.70;41.10;;;;;;5069767;28;20423;-42
2021/03/09 06:38:29;;;;;;;3.63;1.60;;;20.70;41.10;;;;;;5085048;28;20024;-41
2021/03/09 06:41:16;;;;;;;4.05;1.58;;;20.70;41.20;;;;;;5071909;28;20037;-41
2021/03/09 06:43:44;;;;;;;4.97;1.65;;;20.70;41.30;;;;;;5071850;28;20116;-43
2021/03/09 06:46:21;;;;;;;4.70;2.00;;;20.60;41.30;;;;;;5080152;28;20442;-42
2021/03/09 06:48:51;;;;;;;4.78;2.10;;;20.70;41.70;;;;;;5088128;28;20064;-44
2021/03/09 06:51:32;;;;;;;11.02;1.92;;;20.70;42.60;;;;;;5074016;28;20357;-43
2021/03/09 06:54:05;;;;;;;8.73;1.85;;;20.80;42.60;;;;;;5089706;28;20064;-43
2021/03/09 06:56:32;;;;;;;4.95;2.03;;;20.80;42.90;;;;;;5089556;28;20060;-43
2021/03/09 06:59:20;;;;;;;5.68;1.90;;;20.80;43.10;;;;;;5089939;28;20028;-44
2021/03/09 07:02:15;;;;;;;8.25;2.00;;;20.80;43.20;;;;;;5079979;28;20024;-45
2021/03/09 07:04:44;;;;;;;6.32;2.20;;;20.80;43.10;;;;;;5071421;28;20035;-42
2021/03/09 07:07:12;;;;;;;6.70;2.15;;;20.70;43.60;;;;;;5084025;28;20047;-42
2021/03/09 07:09:53;;;;;;;7.25;2.08;;;20.80;43.80;;;;;;5070237;28;20032;-45
2021/03/09 07:12:19;;;;;;;5.53;2.30;;;20.70;43.80;;;;;;5078389;28;20040;-43
2021/03/09 07:14:45;;;;;;;7.35;1.95;;;20.70;43.60;;;;;;5085020;28;20082;-41
2021/03/09 07:17:13;;;;;;;4.28;2.05;;;20.70;43.50;;;;;;5083766;28;20036;-48
2021/03/09 07:19:43;;;;;;;4.90;1.95;;;20.70;43.60;;;;;;5079916;28;20035;-42
2021/03/09 07:22:13;;;;;;;9.77;2.75;;;20.70;43.60;;;;;;5087695;28;20111;-42
2021/03/09 07:24:57;;;;;;;10.82;7.38;;;20.40;39.30;;;;;;5071176;28;20036;-40
2021/03/09 07:27:48;;;;;;;10.93;7.55;;;17.60;31.40;;;;;;5083348;28;20038;-41
2021/03/09 07:30:15;;;;;;;10.95;7.50;;;16.00;33.30;;;;;;5071137;28;20040;-50
2021/03/09 07:32:48;;;;;;;12.20;8.25;;;15.20;34.20;;;;;;5076974;28;20031;-41
2021/03/09 07:35:15;;;;;;;12.43;7.63;;;14.80;34.80;;;;;;5071949;28;20035;-45
2021/03/09 07:37:41;;;;;;;11.13;8.63;;;14.50;35.40;;;;;;5071435;28;20067;-40
2021/03/09 07:40:13;;;;;;;11.85;8.40;;;14.40;35.50;;;;;;5081934;28;20028;-41
2021/03/09 07:42:39;;;;;;;14.77;8.10;;;14.40;35.70;;;;;;5092635;28;20028;-49
2021/03/09 07:45:09;;;;;;;12.82;7.45;;;14.20;36.20;;;;;;5085120;28;20472;-42
2021/03/09 07:47:40;;;;;;;10.10;6.80;;;15.70;35.00;;;;;;5074636;28;20023;-45
2021/03/09 07:50:06;;;;;;;8.63;6.13;;;17.00;34.20;;;;;;5076739;28;20028;-44
2021/03/09 07:52:32;;;;;;;9.05;6.15;;;17.80;34.30;;;;;;5080914;28;20350;-42
2021/03/09 07:55:04;;;;;;;10.93;5.78;;;18.20;34.30;;;;;;5074458;28;20058;-44
2021/03/09 07:57:31;;;;;;;8.05;5.68;;;18.50;34.40;;;;;;5091089;28;20062;-44
2021/03/09 08:00:04;;;;;;;7.82;5.20;;;18.70;34.70;;;;;;5079960;28;20041;-41
2021/03/09 08:02:56;;;;;;;8.05;4.95;;;18.90;34.80;;;;;;5074891;28;20019;-41
2021/03/09 08:05:28;;;;;;;7.78;4.45;;;19.00;35.00;;;;;;5084509;28;20033;-41
2021/03/09 08:08:01;;;;;;;8.20;4.43;;;19.10;35.20;;;;;;5074369;28;20059;-41
2021/03/09 08:10:27;;;;;;;7.15;4.20;;;19.20;35.30;;;;;;5075336;28;20064;-45
2021/03/09 08:12:54;;;;;;;8.38;4.07;;;19.30;35.50;;;;;;5094246;28;20101;-41
2021/03/09 08:15:20;;;;;;;7.80;4.47;;;19.30;35.60;;;;;;5072485;28;20036;-41
2021/03/09 08:17:45;;;;;;;7.03;3.70;;;19.40;35.70;;;;;;5082459;28;20028;-41
2021/03/09 08:20:48;;;;;;;5.13;3.45;;;19.40;35.80;;;;;;5086577;28;20055;-41
2021/03/09 08:23:35;;;;;;;6.45;3.45;;;19.50;36.00;;;;;;5084241;28;20047;-48
2021/03/09 08:26:03;;;;;;;7.13;4.38;;;19.60;36.10;;;;;;5075353;28;20519;-46
2021/03/09 08:28:33;;;;;;;6.70;3.67;;;19.60;36.20;;;;;;5092122;28;20032;-42
2021/03/09 08:31:11;;;;;;;6.95;4.03;;;19.60;36.20;;;;;;5075188;28;20378;-42
2021/03/09 08:33:43;;;;;;;5.18;3.65;;;19.70;36.40;;;;;;5083950;28;20059;-46
2021/03/09 08:36:24;;;;;;;;;;;19.70;36.50;;;;;;5093334;28;20040;-41
2021/03/09 08:39:05;;;;;;;5.97;3.40;;;19.70;36.60;;;;;;5081512;28;19908;-46
2021/03/09 08:44:17;;;;;;;6.30;2.97;;;19.80;36.80;;;;;;5075034;28;20036;-42
2021/03/09 08:47:11;;;;;;;6.82;3.60;;;19.80;36.90;;;;;;5081536;28;20111;-46
2021/03/09 08:49:37;;;;;;;4.85;3.78;;;19.90;37.00;;;;;;5082520;28;20050;-42
2021/03/09 08:52:17;;;;;;;4.50;2.92;;;19.90;37.10;;;;;;5091351;28;20028;-42
2021/03/09 08:54:51;;;;;;;4.25;2.78;;;19.90;37.10;;;;;;5081365;28;20467;-44
2021/03/09 08:57:22;;;;;;;6.32;3.40;;;19.90;37.20;;;;;;5073775;28;20131;-48
2021/03/09 08:59:50;;;;;;;5.25;3.05;;;20.00;37.20;;;;;;5076655;28;20032;-46
2021/03/09 09:02:19;;;;;;;4.45;2.67;;;20.00;37.30;;;;;;5065309;28;20385;-48
2021/03/09 09:05:07;;;;;;;4.13;3.00;;;20.00;38.00;;;;;;5087074;28;20063;-41
2021/03/09 09:07:42;;;;;;;5.45;3.05;;;20.00;37.40;;;;;;5081186;28;20036;-47
2021/03/09 09:10:20;;;;;;;5.13;2.78;;;20.00;37.50;;;;;;5079616;28;20032;-41
2021/03/09 09:12:50;;;;;;;4.47;2.47;;;20.10;37.50;;;;;;5082867;28;20492;-42
2021/03/09 09:15:22;;;;;;;4.30;2.50;;;20.10;37.60;;;;;;5080657;28;20028;-50
2021/03/09 09:17:53;;;;;;;4.22;2.70;;;20.10;37.60;;;;;;5080369;28;20036;-46
2021/03/09 09:20:20;;;;;;;4.88;3.00;;;20.10;37.70;;;;;;5079433;28;20039;-51
2021/03/09 09:22:47;;;;;;;6.47;3.95;;;20.10;37.70;;;;;;5079231;28;20039;-44
2021/03/09 09:25:14;;;;;;;4.57;3.28;;;20.10;37.70;;;;;;5083361;28;20040;-42
2021/03/09 09:27:41;;;;;;;4.45;2.90;;;20.10;37.70;;;;;;5083538;28;20161;-44
2021/03/09 09:30:08;;;;;;;4.43;2.72;;;20.20;37.70;;;;;;5081520;28;20667;-46
2021/03/09 09:32:56;;;;;;;4.78;3.10;;;20.20;37.80;;;;;;5075119;28;20078;-42
2021/03/09 09:35:24;;;;;;;4.43;2.70;;;20.20;37.80;;;;;;5076883;28;20477;-44
2021/03/09 09:38:00;;;;;;;4.03;2.78;;;20.20;37.90;;;;;;5083679;28;20069;-43
2021/03/09 09:40:46;;;;;;;4.03;3.03;;;20.30;37.90;;;;;;5083407;28;20046;-42
2021/03/09 09:43:14;;;;;;;4.85;3.00;;;20.20;38.00;;;;;;5074776;28;20030;-44
2021/03/09 09:45:44;;;;;;;5.43;3.03;;;20.30;38.00;;;;;;5076004;28;20033;-46
2021/03/09 09:48:14;;;;;;;4.45;2.65;;;20.30;38.30;;;;;;5078717;28;20024;-49
2021/03/09 09:50:45;;;;;;;6.90;3.00;;;20.30;38.60;;;;;;5082947;28;20114;-45
2021/03/09 09:53:11;;;;;;;4.82;3.20;;;20.40;38.70;;;;;;5077941;28;20074;-45
2021/03/09 09:55:36;;;;;;;5.30;2.67;;;20.30;38.70;;;;;;5081088;28;20051;-47
2021/03/09 09:58:03;;;;;;;4.65;3.17;;;20.40;38.70;;;;;;5085723;28;20028;-46
2021/03/09 10:00:33;;;;;;;5.25;2.80;;;20.40;38.70;;;;;;5079147;28;20098;-45
2021/03/09 10:03:15;;;;;;;4.82;3.03;;;20.40;38.80;;;;;;5088442;28;20031;-45
2021/03/09 10:05:42;;;;;;;3.67;2.55;;;20.40;38.80;;;;;;5072765;28;20048;-44
2021/03/09 10:08:09;;;;;;;6.22;3.00;;;20.40;38.80;;;;;;5078055;28;20099;-46
2021/03/09 10:10:37;;;;;;;6.25;2.95;;;20.40;38.90;;;;;;5080663;28;20028;-41
2021/03/09 10:13:28;;;;;;;5.68;2.63;;;20.40;39.00;;;;;;5080012;28;20032;-46
2021/03/09 10:15:54;;;;;;;7.55;3.17;;;20.50;38.90;;;;;;5084783;28;20048;-42
2021/03/09 10:18:29;;;;;;;2.85;2.20;;;20.50;39.00;;;;;;5087028;28;20123;-47
2021/03/09 10:21:13;;;;;;;5.63;2.90;;;20.50;38.90;;;;;;5079030;28;20024;-48
2021/03/09 10:24:01;;;;;;;5.30;2.55;;;20.50;39.00;;;;;;5072705;28;20020;-44
2021/03/09 10:26:26;;;;;;;4.47;2.88;;;20.50;39.00;;;;;;5087271;28;20039;-47
2021/03/09 10:29:02;;;;;;;2.97;2.47;;;20.50;39.00;;;;;;5086946;28;20024;-43
2021/03/09 10:31:45;;;;;;;4.75;2.67;;;20.50;39.00;;;;;;5080131;28;20031;-42
2021/03/09 10:34:12;;;;;;;3.30;2.50;;;20.50;39.10;;;;;;5091128;28;20035;-47
2021/03/09 10:36:47;;;;;;;5.38;3.03;;;20.50;39.10;;;;;;5078582;28;20162;-46
2021/03/09 10:39:13;;;;;;;4.90;2.92;;;20.60;39.20;;;;;;5071117;28;20029;-43
2021/03/09 10:41:39;;;;;;;4.32;2.70;;;20.50;39.20;;;;;;5070993;28;20073;-47
2021/03/09 10:44:05;;;;;;;4.13;2.90;;;20.50;39.20;;;;;;5088547;28;20027;-44
2021/03/09 10:46:34;;;;;;;4.85;2.80;;;20.50;39.20;;;;;;5084096;28;20116;-43
2021/03/09 10:49:00;;;;;;;4.35;2.72;;;20.50;39.20;;;;;;5081401;28;20478;-44
2021/03/09 10:51:26;;;;;;;4.82;2.47;;;20.60;39.30;;;;;;5070751;28;20112;-41
2021/03/09 10:53:52;;;;;;;4.57;2.92;;;20.60;39.30;;;;;;5077331;28;20115;-48
2021/03/09 10:56:18;;;;;;;3.63;2.30;;;20.60;39.30;;;;;;5082134;28;20404;-44
2021/03/09 10:58:43;;;;;;;3.38;2.63;;;20.60;39.30;;;;;;5084413;28;20047;-47
2021/03/09 11:01:09;;;;;;;3.75;2.50;;;20.60;39.30;;;;;;5087855;28;20028;-43
2021/03/09 11:03:35;;;;;;;4.32;2.67;;;20.60;39.40;;;;;;5087966;28;20024;-43
2021/03/09 11:06:01;;;;;;;3.80;2.60;;;20.60;39.40;;;;;;5088561;28;20552;-44
2021/03/09 11:08:26;;;;;;;4.10;2.50;;;20.60;39.40;;;;;;5084359;28;20058;-41
2021/03/09 11:10:55;;;;;;;4.68;2.80;;;20.60;39.40;;;;;;5081083;28;20372;-46
2021/03/09 11:13:21;;;;;;;4.13;2.50;;;20.60;39.50;;;;;;5082562;28;20059;-49
2021/03/09 11:15:47;;;;;;;2.85;2.50;;;20.70;39.60;;;;;;5081496;28;20040;-42
2021/03/09 11:18:13;;;;;;;5.57;3.45;;;20.70;39.60;;;;;;5085812;28;20025;-46
2021/03/09 11:20:41;;;;;;;2.90;2.20;;;20.70;39.70;;;;;;5074969;28;20032;-47
2021/03/09 11:23:07;;;;;;;5.00;2.88;;;20.70;39.70;;;;;;5075160;28;20025;-45
2021/03/09 11:25:34;;;;;;;3.55;2.42;;;20.70;39.80;;;;;;5085013;28;20039;-42
2021/03/09 11:28:00;;;;;;;3.53;2.33;;;20.70;39.90;;;;;;5078918;28;20108;-42
2021/03/09 11:30:26;;;;;;;4.78;2.40;;;20.70;39.90;;;;;;5079741;28;20483;-43
2021/03/09 11:32:52;;;;;;;5.68;3.03;;;20.70;40.00;;;;;;5085885;28;20048;-44
2021/03/09 11:35:18;;;;;;;4.53;2.95;;;20.70;40.20;;;;;;5073485;28;20029;-43
2021/03/09 11:37:43;;;;;;;5.53;3.25;;;20.70;40.30;;;;;;5086309;28;20835;-43
2021/03/09 11:40:10;;;;;;;5.20;2.90;;;20.70;40.30;;;;;;5093237;28;20028;-43
2021/03/09 11:42:35;;;;;;;4.65;3.03;;;20.70;40.40;;;;;;5079575;28;20052;-43
2021/03/09 11:45:03;;;;;;;5.90;2.97;;;20.70;40.30;;;;;;5074852;28;20101;-43
2021/03/09 11:47:28;;;;;;;4.78;3.22;;;20.70;40.50;;;;;;5090684;28;20525;-49
2021/03/09 11:49:54;;;;;;;5.15;2.42;;;20.80;40.50;;;;;;5085243;28;20143;-45
2021/03/09 11:52:19;;;;;;;4.32;2.35;;;20.70;40.60;;;;;;5088418;28;20020;-42
2021/03/09 11:54:45;;;;;;;3.55;2.83;;;20.80;40.90;;;;;;5081173;28;20451;-42
2021/03/09 11:57:10;;;;;;;5.03;2.78;;;20.80;41.10;;;;;;5094303;28;20085;-44
2021/03/09 11:59:36;;;;;;;5.32;2.63;;;20.80;42.20;;;;;;5093370;28;20423;-45
2021/03/09 12:02:02;;;;;;;5.30;2.80;;;20.80;42.60;;;;;;5076410;28;20057;-47
2021/03/09 12:04:27;;;;;;;4.45;2.25;;;20.80;42.50;;;;;;5076898;28;20025;-51
2021/03/09 12:06:53;;;;;;;3.80;2.80;;;20.80;42.50;;;;;;5079916;28;20150;-44
2021/03/09 12:09:19;;;;;;;4.05;2.55;;;20.80;42.50;;;;;;5078140;28;20054;-43
2021/03/09 12:11:44;;;;;;;3.45;2.35;;;20.80;42.40;;;;;;5074467;28;20060;-50
2021/03/09 12:14:10;;;;;;;2.95;2.50;;;20.80;42.40;;;;;;5074294;28;20040;-46
2021/03/09 12:16:36;;;;;;;5.05;2.72;;;20.80;42.30;;;;;;5074402;28;20135;-46
2021/03/09 12:19:02;;;;;;;7.10;3.22;;;20.80;42.30;;;;;;5073604;28;20039;-46
2021/03/09 12:21:28;;;;;;;4.80;2.20;;;20.90;42.30;;;;;;5073127;28;20028;-43
2021/03/09 12:23:54;;;;;;;3.35;2.45;;;20.90;42.20;;;;;;5081445;28;20025;-43
2021/03/09 12:26:19;;;;;;;3.15;1.88;;;20.80;42.10;;;;;;5075813;28;20041;-45
2021/03/09 12:28:45;;;;;;;3.72;2.65;;;20.90;42.10;;;;;;5073292;28;20105;-45
2021/03/09 12:31:11;;;;;;;4.05;2.10;;;20.90;42.00;;;;;;5080631;28;20142;-46
2021/03/09 12:33:36;;;;;;;4.70;2.55;;;20.90;42.00;;;;;;5082961;28;20090;-49
2021/03/09 12:36:02;;;;;;;4.32;2.42;;;20.90;41.90;;;;;;5074395;28;20036;-46
2021/03/09 12:38:29;;;;;;;3.05;2.03;;;20.90;41.90;;;;;;5088775;28;20415;-46
2021/03/09 12:40:56;;;;;;;4.60;1.92;;;20.90;41.80;;;;;;5083594;28;20035;-43
2021/03/09 12:43:21;;;;;;;4.32;2.35;;;20.90;41.70;;;;;;5083734;28;20021;-44
2021/03/09 12:45:47;;;;;;;3.28;1.90;;;20.90;41.70;;;;;;5077974;28;20405;-49
2021/03/09 12:48:12;;;;;;;3.95;1.83;;;20.90;41.60;;;;;;5092941;28;20062;-45
2021/03/09 12:50:38;;;;;;;5.20;2.70;;;20.90;41.60;;;;;;5092117;28;20098;-43
2021/03/09 12:53:04;;;;;;;3.55;1.85;;;20.90;41.60;;;;;;5083326;28;20525;-45
2021/03/09 12:55:30;;;;;;;2.53;1.75;;;20.90;41.50;;;;;;5088639;28;20067;-45
2021/03/09 12:57:56;;;;;;;2.95;1.80;;;20.90;41.50;;;;;;5085444;28;20060;-45
2021/03/09 13:00:22;;;;;;;3.42;1.83;;;20.90;41.40;;;;;;5074337;28;20059;-43